Time;durP1;ratioP1;P1;durP2;ratioP2;P2;SDS_P1;SDS_P2;PMS_P1;PMS_P2;Temp;Humidity;BMP_temperature;BMP_pressure;BME280_temperature;BME280_humidity;BME280_pressure;Samples;Min_cycle;Max_cycle;Signal;HPM_P1;HPM_P2
2023/01/13 00:00:16;;;;;;;0.95;0.30;;;13.00;82.40;;;;;;5045075;28;20045;-50
2023/01/13 00:02:42;;;;;;;0.52;0.45;;;12.90;82.40;;;;;;5044505;28;20414;-53
2023/01/13 00:05:11;;;;;;;1.58;0.50;;;12.90;82.50;;;;;;5049477;28;20041;-53
2023/01/13 00:07:40;;;;;;;1.30;0.50;;;12.90;82.70;;;;;;5041810;28;20040;-51
2023/01/13 00:10:09;;;;;;;2.25;0.85;;;12.90;82.80;;;;;;5047260;28;20049;-54
2023/01/13 00:12:42;;;;;;;1.13;0.98;;;12.80;82.80;;;;;;5049573;28;20072;-52
2023/01/13 00:15:10;;;;;;;1.17;0.63;;;12.80;82.90;;;;;;5050007;28;20088;-51
2023/01/13 00:17:37;;;;;;;2.67;0.63;;;12.80;82.90;;;;;;5048964;28;20099;-51
2023/01/13 00:20:08;;;;;;;0.65;0.40;;;12.80;83.00;;;;;;5039415;28;20402;-52
2023/01/13 00:22:37;;;;;;;2.58;0.82;;;12.80;83.00;;;;;;5049505;28;20276;-53
2023/01/13 00:25:05;;;;;;;2.28;0.80;;;12.80;83.00;;;;;;5013407;28;1039695;-54
2023/01/13 00:27:34;;;;;;;0.98;0.63;;;12.80;83.00;;;;;;5050153;28;20049;-50
2023/01/13 00:30:01;;;;;;;3.67;0.77;;;12.80;82.70;;;;;;5045033;28;20124;-50
2023/01/13 00:32:32;;;;;;;3.45;1.08;;;12.80;82.60;;;;;;5026447;28;20492;-51
2023/01/13 00:35:01;;;;;;;3.42;0.77;;;12.80;82.40;;;;;;5047538;28;20059;-51
2023/01/13 00:37:28;;;;;;;2.80;0.68;;;12.80;82.30;;;;;;5044695;28;20060;-50
2023/01/13 00:39:56;;;;;;;3.42;0.90;;;12.80;82.10;;;;;;5046367;28;20043;-50
2023/01/13 00:45:14;;;;;;;2.95;0.70;;;12.70;82.10;;;;;;5032414;28;20056;-53
2023/01/13 00:47:45;;;;;;;3.45;1.00;;;12.80;82.00;;;;;;5033612;28;20111;-50
2023/01/13 00:50:12;;;;;;;2.58;1.00;;;12.70;81.70;;;;;;5050047;28;20045;-52
2023/01/13 00:52:47;;;;;;;5.55;1.52;;;12.70;81.70;;;;;;5049351;28;20051;-51
2023/01/13 00:55:13;;;;;;;9.75;1.80;;;12.70;81.90;;;;;;5042525;28;20051;-53
2023/01/13 00:57:40;;;;;;;5.30;1.42;;;12.70;81.60;;;;;;5043642;28;20051;-53
2023/01/13 01:00:10;;;;;;;6.15;1.70;;;12.70;81.40;;;;;;5050112;28;20041;-50
2023/01/13 01:02:39;;;;;;;4.53;1.20;;;12.70;81.10;;;;;;5049479;28;20033;-51
2023/01/13 01:05:09;;;;;;;5.30;1.65;;;12.70;81.00;;;;;;5049738;28;20037;-51
2023/01/13 01:07:36;;;;;;;5.25;1.00;;;12.70;80.90;;;;;;5045364;28;20037;-52
2023/01/13 01:10:10;;;;;;;3.13;1.02;;;12.60;80.90;;;;;;5049978;28;20571;-49
2023/01/13 01:12:37;;;;;;;4.82;1.35;;;12.60;80.90;;;;;;5048940;28;20151;-51
2023/01/13 01:15:06;;;;;;;3.08;0.90;;;12.60;81.10;;;;;;5042944;28;20053;-52
2023/01/13 01:17:35;;;;;;;2.40;1.00;;;12.60;81.10;;;;;;5042361;28;20418;-50
2023/01/13 01:20:03;;;;;;;3.38;1.50;;;12.60;81.10;;;;;;5049444;28;20128;-49
2023/01/13 01:22:32;;;;;;;5.18;1.27;;;12.60;81.00;;;;;;5024082;28;20071;-51
2023/01/13 01:25:04;;;;;;;3.72;0.93;;;12.60;80.90;;;;;;5046745;28;20044;-53
2023/01/13 01:27:31;;;;;;;7.70;1.90;;;12.60;80.60;;;;;;5048436;28;20564;-49
2023/01/13 01:30:00;;;;;;;3.30;1.00;;;12.50;80.10;;;;;;5049715;28;20044;-52
2023/01/13 01:32:29;;;;;;;3.60;1.17;;;12.50;79.70;;;;;;5042218;28;20100;-51
2023/01/13 01:35:03;;;;;;;6.80;1.83;;;12.50;79.50;;;;;;5038005;28;20045;-52
2023/01/13 01:37:32;;;;;;;3.72;1.90;;;12.40;78.90;;;;;;5029146;28;20075;-50
2023/01/13 01:39:59;;;;;;;5.85;1.77;;;12.40;78.90;;;;;;5049272;28;20397;-49
2023/01/13 01:45:23;;;;;;;8.07;2.28;;;12.30;78.80;;;;;;5044121;28;20216;-52
2023/01/13 01:48:01;;;;;;;5.13;2.33;;;12.30;79.10;;;;;;5049274;28;20087;-51
2023/01/13 01:50:28;;;;;;;7.53;2.58;;;12.20;78.90;;;;;;5049847;28;20409;-54
2023/01/13 01:53:06;;;;;;;4.00;1.55;;;12.20;78.90;;;;;;5045875;28;20505;-54
2023/01/13 01:55:37;;;;;;;2.75;1.27;;;12.20;78.60;;;;;;5048280;28;20128;-51
2023/01/13 01:58:12;;;;;;;3.50;0.95;;;12.10;78.70;;;;;;5030624;28;20152;-53
2023/01/13 02:00:41;;;;;;;5.60;1.27;;;12.10;78.40;;;;;;5049505;28;20071;-52
2023/01/13 02:03:14;;;;;;;4.25;1.20;;;12.10;78.60;;;;;;5046038;28;20075;-52
2023/01/13 02:05:41;;;;;;;6.00;1.77;;;12.10;78.40;;;;;;5053527;28;20447;-50
2023/01/13 02:08:10;;;;;;;7.55;1.60;;;12.00;78.20;;;;;;5052804;28;20037;-52
2023/01/13 02:10:40;;;;;;;9.35;1.73;;;12.00;78.10;;;;;;5051185;28;20040;-50
2023/01/13 02:13:11;;;;;;;2.35;1.08;;;12.00;78.50;;;;;;5047563;28;20582;-53
2023/01/13 02:16:01;;;;;;;5.82;2.08;;;12.00;77.70;;;;;;5053376;28;20057;-50
2023/01/13 02:18:52;;;;;;;7.28;1.55;;;11.90;77.20;;;;;;5052883;28;20037;-50
2023/01/13 02:21:52;;;;;;;7.18;2.17;;;11.90;77.10;;;;;;5045013;28;20571;-51
2023/01/13 02:27:19;;;;;;;8.23;1.88;;;11.80;77.40;;;;;;5046855;28;20094;-51
2023/01/13 02:33:17;;;;;;;;;;;11.70;76.50;;;;;;5045000;28;20061;-52
2023/01/13 02:36:13;;;;;;;7.28;2.03;;;11.70;77.20;;;;;;5047656;28;20380;-53
2023/01/13 02:38:53;;;;;;;7.72;2.53;;;11.70;76.40;;;;;;5050366;28;20041;-51
2023/01/13 02:44:23;;;;;;;7.85;1.80;;;11.50;76.50;;;;;;5052285;28;20099;-53
2023/01/13 02:47:07;;;;;;;7.07;1.58;;;11.50;77.20;;;;;;5053046;28;20047;-51
2023/01/13 02:49:47;;;;;;;5.22;1.30;;;11.40;76.20;;;;;;5047154;28;20040;-51
2023/01/13 02:52:24;;;;;;;7.07;1.38;;;11.40;76.10;;;;;;5051928;28;20076;-52
2023/01/13 02:54:59;;;;;;;4.10;1.20;;;11.30;75.80;;;;;;5045256;28;20033;-52
2023/01/13 02:57:28;;;;;;;2.90;0.98;;;11.30;75.80;;;;;;5052433;28;20491;-54
2023/01/13 03:00:13;;;;;;;4.70;1.30;;;11.20;75.80;;;;;;5048255;28;20036;-50
2023/01/13 03:02:40;;;;;;;7.43;1.25;;;11.20;75.70;;;;;;5043515;28;20041;-54
2023/01/13 03:05:13;;;;;;;4.70;0.88;;;11.10;75.70;;;;;;5052249;28;20040;-49
2023/01/13 03:07:58;;;;;;;5.95;1.27;;;11.10;76.20;;;;;;5045383;28;20471;-49
2023/01/13 03:10:46;;;;;;;3.53;1.38;;;11.10;75.70;;;;;;5049707;28;20141;-51
2023/01/13 03:13:53;;;;;;;3.95;1.27;;;11.10;74.80;;;;;;5046747;28;20478;-53
2023/01/13 03:16:32;;;;;;;4.95;1.20;;;11.00;74.90;;;;;;5047122;28;20041;-51
2023/01/13 03:19:30;;;;;;;4.90;1.15;;;11.00;75.20;;;;;;5038514;28;20501;-52
2023/01/13 03:22:35;;;;;;;1.40;0.82;;;11.00;74.70;;;;;;5044447;28;20456;-49
2023/01/13 03:25:14;;;;;;;2.70;1.20;;;10.90;74.60;;;;;;5045816;28;20099;-49
2023/01/13 03:27:48;;;;;;;4.10;1.35;;;10.90;75.60;;;;;;5041496;28;20051;-53
2023/01/13 03:30:32;;;;;;;3.97;1.23;;;10.80;75.50;;;;;;5051969;28;20039;-49
2023/01/13 03:33:05;;;;;;;2.60;1.02;;;10.80;75.70;;;;;;5036460;28;20159;-52
2023/01/13 03:35:39;;;;;;;4.20;1.23;;;10.80;75.70;;;;;;5046999;28;20131;-51
2023/01/13 03:38:20;;;;;;;2.72;1.13;;;10.80;75.50;;;;;;5033425;28;20090;-51
2023/01/13 03:40:54;;;;;;;6.70;1.30;;;10.80;75.50;;;;;;5043929;28;20041;-53
2023/01/13 03:46:43;;;;;;;4.80;1.30;;;10.80;75.70;;;;;;5043202;28;20041;-52
2023/01/13 03:49:18;;;;;;;5.43;1.88;;;10.80;75.10;;;;;;5047931;28;20037;-50
2023/01/13 03:51:48;;;;;;;;;;;10.80;75.70;;;;;;5051644;28;20555;-51
2023/01/13 03:54:17;;;;;;;5.93;1.73;;;10.80;75.50;;;;;;5047606;28;20011;-49
2023/01/13 03:56:55;;;;;;;3.97;1.15;;;10.80;75.80;;;;;;5050407;28;20049;-50
2023/01/13 03:59:27;;;;;;;7.78;2.20;;;10.80;75.70;;;;;;5050082;28;20128;-49
2023/01/13 04:02:00;;;;;;;10.00;1.90;;;10.80;75.90;;;;;;5032982;28;20043;-49
2023/01/13 04:05:01;;;;;;;9.18;2.00;;;10.90;75.70;;;;;;5041279;28;20037;-50
2023/01/13 04:07:39;;;;;;;6.60;1.58;;;10.90;75.70;;;;;;5044472;28;20087;-53
2023/01/13 04:10:17;;;;;;;6.70;1.85;;;10.90;75.40;;;;;;5051367;28;20037;-53
2023/01/13 04:12:59;;;;;;;7.70;1.83;;;11.00;75.60;;;;;;5050416;28;20053;-51
2023/01/13 04:15:30;;;;;;;10.05;2.42;;;11.00;75.40;;;;;;5045237;28;20047;-53
2023/01/13 04:18:15;;;;;;;5.95;1.88;;;11.10;75.40;;;;;;5043689;28;20045;-49
2023/01/13 04:20:46;;;;;;;5.18;1.60;;;11.10;74.90;;;;;;5051045;28;20448;-52
2023/01/13 04:23:14;;;;;;;7.65;2.38;;;11.20;75.30;;;;;;5040794;28;20536;-52
2023/01/13 04:25:48;;;;;;;7.57;2.17;;;11.10;75.20;;;;;;5049189;28;20037;-52
2023/01/13 04:28:19;;;;;;;7.53;2.00;;;11.20;75.10;;;;;;5050904;28;20037;-49
2023/01/13 04:30:49;;;;;;;8.40;1.83;;;11.20;75.00;;;;;;5033447;28;20053;-53
2023/01/13 04:33:20;;;;;;;8.63;2.40;;;11.30;74.90;;;;;;5047073;28;20413;-48
2023/01/13 04:35:57;;;;;;;13.68;3.28;;;11.30;74.80;;;;;;5038927;28;20124;-49
2023/01/13 04:38:23;;;;;;;9.95;2.60;;;11.40;75.00;;;;;;5031372;28;20105;-50
2023/01/13 04:40:52;;;;;;;8.43;1.80;;;11.30;74.70;;;;;;5049270;28;20064;-52
2023/01/13 04:43:22;;;;;;;8.20;2.35;;;11.40;74.50;;;;;;5025858;28;20045;-50
2023/01/13 04:45:48;;;;;;;10.70;2.03;;;11.30;74.30;;;;;;5050600;28;20081;-49
2023/01/13 04:48:15;;;;;;;6.63;2.25;;;11.40;74.50;;;;;;5049697;28;20095;-50
2023/01/13 04:50:44;;;;;;;6.95;2.20;;;11.30;74.40;;;;;;5047088;28;20116;-51
2023/01/13 04:53:15;;;;;;;7.75;2.50;;;11.30;74.40;;;;;;5048970;28;20041;-50
2023/01/13 04:55:43;;;;;;;7.90;2.30;;;11.20;74.60;;;;;;5049809;28;20133;-53
2023/01/13 04:58:12;;;;;;;10.07;2.13;;;11.20;74.80;;;;;;5046989;28;20041;-49
2023/01/13 05:00:40;;;;;;;7.30;2.35;;;11.20;74.80;;;;;;5045953;28;20036;-53
2023/01/13 05:03:07;;;;;;;9.52;2.30;;;11.10;74.70;;;;;;5045253;28;20052;-50
2023/01/13 05:05:33;;;;;;;11.95;2.50;;;11.10;74.80;;;;;;5047470;28;20045;-53
2023/01/13 05:08:01;;;;;;;5.95;1.95;;;11.00;74.90;;;;;;5049803;28;20063;-50
2023/01/13 05:10:30;;;;;;;7.70;2.40;;;11.00;74.80;;;;;;5044637;28;20083;-49
2023/01/13 05:16:59;;;;;;;10.98;2.90;;;10.90;74.70;;;;;;5048905;28;20515;-53
2023/01/13 05:18:49;;;;;;;7.72;2.17;;;10.90;74.90;;;;;;5041922;28;20079;-51
2023/01/13 05:26:48;;;;;;;7.30;2.75;;;10.80;74.90;;;;;;5049430;28;20049;-52
2023/01/13 05:29:15;;;;;;;4.22;2.05;;;10.70;74.90;;;;;;5045970;28;20037;-50
2023/01/13 05:31:41;;;;;;;7.30;2.17;;;10.70;75.00;;;;;;5039440;28;20128;-53
2023/01/13 05:34:08;;;;;;;7.45;2.08;;;10.70;75.10;;;;;;5040637;28;20052;-50
2023/01/13 05:36:34;;;;;;;7.45;1.75;;;10.70;75.10;;;;;;5043811;28;20040;-48
2023/01/13 05:39:01;;;;;;;6.15;1.52;;;10.70;74.90;;;;;;5042566;28;20489;-53
2023/01/13 05:44:17;;;;;;;5.50;1.98;;;10.70;74.90;;;;;;5036533;28;20037;-52
2023/01/13 05:46:43;;;;;;;6.72;2.10;;;10.70;75.00;;;;;;5039297;28;20047;-52
2023/01/13 05:49:10;;;;;;;6.43;2.53;;;10.70;74.80;;;;;;5041039;28;20045;-49
2023/01/13 05:51:37;;;;;;;8.10;2.10;;;10.80;74.60;;;;;;5049184;28;20041;-53
2023/01/13 05:54:03;;;;;;;7.05;2.25;;;10.80;74.40;;;;;;5048260;28;20682;-51
2023/01/13 05:56:30;;;;;;;9.85;3.13;;;10.80;74.20;;;;;;5043455;28;20037;-51
2023/01/13 05:58:56;;;;;;;5.53;2.00;;;10.80;73.90;;;;;;5041499;28;20045;-53
2023/01/13 06:01:26;;;;;;;7.57;2.28;;;10.80;73.80;;;;;;5049457;28;20112;-50
2023/01/13 06:03:53;;;;;;;8.48;2.10;;;10.80;73.50;;;;;;5047371;28;20044;-53
2023/01/13 06:06:19;;;;;;;6.32;1.73;;;10.90;73.40;;;;;;5042864;28;20041;-50
2023/01/13 06:08:46;;;;;;;9.02;2.40;;;10.80;73.20;;;;;;5046604;28;20047;-49
2023/01/13 06:11:13;;;;;;;5.60;1.80;;;10.80;73.10;;;;;;5048917;28;20055;-48
2023/01/13 06:13:39;;;;;;;5.88;2.22;;;10.80;73.00;;;;;;5030451;28;20063;-53
2023/01/13 06:16:06;;;;;;;6.00;1.73;;;10.80;73.00;;;;;;5042452;28;20041;-54
2023/01/13 06:18:33;;;;;;;6.50;1.90;;;10.90;72.90;;;;;;5044067;28;20045;-50
2023/01/13 06:20:59;;;;;;;5.60;1.73;;;10.90;72.90;;;;;;5044888;28;20048;-53
2023/01/13 06:23:27;;;;;;;10.05;1.88;;;10.90;72.90;;;;;;5040361;28;20501;-52
2023/01/13 06:26:14;;;;;;;4.00;1.55;;;10.90;72.80;;;;;;5040084;28;20048;-49
2023/01/13 06:28:41;;;;;;;3.95;1.88;;;10.90;72.60;;;;;;5036551;28;20053;-51
2023/01/13 06:31:09;;;;;;;8.27;2.20;;;10.90;72.80;;;;;;5046701;28;20143;-51
2023/01/13 06:33:40;;;;;;;7.47;1.95;;;10.90;72.70;;;;;;5039706;28;20049;-50
2023/01/13 06:36:13;;;;;;;6.18;1.70;;;10.90;72.50;;;;;;5037903;28;20055;-50
2023/01/13 06:38:44;;;;;;;8.48;1.98;;;10.90;72.40;;;;;;5046891;28;20552;-50
2023/01/13 06:41:10;;;;;;;5.15;1.88;;;10.90;72.50;;;;;;5046600;28;20041;-50
2023/01/13 06:43:40;;;;;;;5.20;1.63;;;10.90;72.70;;;;;;5042630;28;20052;-50
2023/01/13 06:46:07;;;;;;;8.05;2.15;;;10.90;72.40;;;;;;5047282;28;20413;-50
2023/01/13 06:48:34;;;;;;;8.13;2.40;;;10.90;72.50;;;;;;5048997;28;20092;-50
2023/01/13 06:51:02;;;;;;;9.40;2.13;;;10.90;72.50;;;;;;5046840;28;20454;-50
2023/01/13 06:53:29;;;;;;;5.40;1.92;;;10.90;72.30;;;;;;5022511;28;20510;-50
2023/01/13 06:55:55;;;;;;;10.25;2.13;;;10.80;72.30;;;;;;5045562;28;20501;-50
2023/01/13 06:58:22;;;;;;;11.57;2.28;;;10.80;72.30;;;;;;5051295;28;20123;-49
2023/01/13 07:00:50;;;;;;;6.05;2.03;;;10.80;72.20;;;;;;5047362;28;20036;-51
2023/01/13 07:03:18;;;;;;;9.40;1.83;;;10.80;71.90;;;;;;5049156;28;20041;-53
2023/01/13 07:05:52;;;;;;;6.93;1.88;;;10.80;71.80;;;;;;5050753;28;20045;-50
2023/01/13 07:08:18;;;;;;;4.30;1.80;;;10.80;72.00;;;;;;5050233;28;20055;-50
2023/01/13 07:10:45;;;;;;;7.57;2.25;;;10.80;71.60;;;;;;5049044;28;20047;-51
2023/01/13 07:15:59;;;;;;;7.80;2.17;;;10.80;71.50;;;;;;5049616;28;20069;-51
2023/01/13 07:18:30;;;;;;;5.10;1.38;;;10.80;71.40;;;;;;5043758;28;20509;-49
2023/01/13 07:21:05;;;;;;;7.72;2.67;;;10.80;71.50;;;;;;5038015;28;20081;-51
2023/01/13 07:23:40;;;;;;;5.35;2.58;;;10.80;71.40;;;;;;5050132;28;20528;-53
2023/01/13 07:26:09;;;;;;;8.30;1.58;;;10.80;71.50;;;;;;5033748;28;20087;-50
2023/01/13 07:28:40;;;;;;;6.68;2.30;;;10.80;71.60;;;;;;5043773;28;20041;-51
2023/01/13 07:31:21;;;;;;;7.18;1.95;;;10.80;71.80;;;;;;5040146;28;20056;-50
2023/01/13 07:33:48;;;;;;;9.68;2.30;;;10.80;71.30;;;;;;5050075;28;20056;-50
2023/01/13 07:36:15;;;;;;;4.93;1.88;;;10.80;71.50;;;;;;5047522;28;20530;-53
2023/01/13 07:38:43;;;;;;;7.85;1.83;;;10.80;71.50;;;;;;5051155;28;20091;-50
2023/01/13 07:44:03;;;;;;;7.05;2.00;;;10.90;71.40;;;;;;5025220;28;20045;-50
2023/01/13 07:46:30;;;;;;;4.47;1.33;;;10.90;71.20;;;;;;5045833;28;20128;-53
2023/01/13 07:48:58;;;;;;;11.35;2.67;;;10.90;71.70;;;;;;5049183;28;20040;-51
2023/01/13 07:51:24;;;;;;;5.50;1.98;;;10.90;70.90;;;;;;5048107;28;20041;-51
2023/01/13 07:53:51;;;;;;;9.40;1.90;;;10.90;70.80;;;;;;5051324;28;20053;-52
2023/01/13 07:56:20;;;;;;;6.57;1.67;;;10.90;70.90;;;;;;5050860;28;20427;-49
2023/01/13 07:58:49;;;;;;;4.25;1.70;;;10.80;70.90;;;;;;5043277;28;20059;-50
2023/01/13 08:01:17;;;;;;;5.80;1.38;;;10.90;70.90;;;;;;5050203;28;20040;-50
2023/01/13 08:03:47;;;;;;;4.03;1.48;;;10.80;70.90;;;;;;5051369;28;20063;-53
2023/01/13 08:06:13;;;;;;;5.00;1.38;;;10.90;71.10;;;;;;5047900;28;20125;-50
2023/01/13 08:08:47;;;;;;;5.57;1.63;;;10.90;71.10;;;;;;5046715;28;20051;-49
2023/01/13 08:11:20;;;;;;;8.93;1.70;;;10.90;71.10;;;;;;5050264;28;20136;-49
2023/01/13 08:13:56;;;;;;;7.03;1.95;;;10.90;70.90;;;;;;5051389;28;20091;-51
2023/01/13 08:16:24;;;;;;;10.23;2.40;;;10.90;71.10;;;;;;5046320;28;20045;-50
2023/01/13 08:18:54;;;;;;;7.90;2.25;;;10.90;71.30;;;;;;5051085;28;20048;-50
2023/01/13 08:21:21;;;;;;;5.85;1.65;;;10.90;71.30;;;;;;5050056;28;20045;-49
2023/01/13 08:23:52;;;;;;;8.93;2.72;;;10.90;71.40;;;;;;5048916;28;20116;-50
2023/01/13 08:26:19;;;;;;;6.43;2.30;;;10.90;71.40;;;;;;5046939;28;20048;-50
2023/01/13 08:28:45;;;;;;;7.45;1.88;;;11.00;71.40;;;;;;5048726;28;20122;-53
2023/01/13 08:31:18;;;;;;;9.07;2.70;;;11.00;71.40;;;;;;5049876;28;20041;-50
2023/01/13 08:33:45;;;;;;;12.35;3.42;;;11.00;71.30;;;;;;5051000;28;20033;-50
2023/01/13 08:36:13;;;;;;;8.00;2.50;;;11.10;71.10;;;;;;5046287;28;20493;-50
2023/01/13 08:38:41;;;;;;;7.88;2.53;;;11.10;71.00;;;;;;5050951;28;20502;-50
2023/01/13 08:41:14;;;;;;;10.23;3.00;;;11.10;70.90;;;;;;5049775;28;20037;-49
2023/01/13 08:43:41;;;;;;;12.15;2.75;;;11.10;70.80;;;;;;5050415;28;20053;-51
2023/01/13 08:46:10;;;;;;;7.40;2.65;;;11.10;70.80;;;;;;5041280;28;20033;-49
2023/01/13 08:48:42;;;;;;;7.20;2.10;;;11.10;70.80;;;;;;5048221;28;20099;-51
2023/01/13 08:51:10;;;;;;;12.80;2.63;;;11.10;70.90;;;;;;5049988;28;20051;-49
2023/01/13 08:53:39;;;;;;;8.70;2.85;;;11.20;70.90;;;;;;5050531;28;20178;-51
2023/01/13 08:56:11;;;;;;;14.13;3.10;;;11.20;70.80;;;;;;5047494;28;20043;-49
2023/01/13 08:58:39;;;;;;;7.70;3.00;;;11.30;71.00;;;;;;5050894;28;20052;-48
2023/01/13 09:01:07;;;;;;;8.73;2.67;;;11.30;70.80;;;;;;5041082;28;20029;-52
2023/01/13 09:03:34;;;;;;;11.60;2.72;;;11.30;70.60;;;;;;5050127;28;20449;-53
2023/01/13 09:06:01;;;;;;;8.98;3.00;;;11.40;70.60;;;;;;5043771;28;20116;-51
2023/01/13 09:08:28;;;;;;;11.45;2.75;;;11.40;70.70;;;;;;5049136;28;20409;-49
2023/01/13 09:10:55;;;;;;;10.27;3.15;;;11.40;70.30;;;;;;5043497;28;20033;-49
2023/01/13 09:13:22;;;;;;;13.18;3.35;;;11.50;70.20;;;;;;5044275;28;20436;-51
2023/01/13 09:15:49;;;;;;;12.50;3.00;;;11.50;69.90;;;;;;5036984;28;20712;-49
2023/01/13 09:18:15;;;;;;;15.38;3.13;;;11.50;69.80;;;;;;5049778;28;20044;-50
2023/01/13 09:20:43;;;;;;;12.23;3.28;;;11.50;69.60;;;;;;5049157;28;20072;-52
2023/01/13 09:23:10;;;;;;;13.73;2.75;;;11.40;69.60;;;;;;5037553;28;20488;-49
2023/01/13 09:25:37;;;;;;;13.95;2.63;;;11.40;69.50;;;;;;5048891;28;20041;-51
2023/01/13 09:28:04;;;;;;;11.10;3.08;;;11.40;69.50;;;;;;5038508;28;20037;-48
2023/01/13 09:30:31;;;;;;;16.25;3.95;;;11.40;69.60;;;;;;5045221;28;20045;-51
2023/01/13 09:35:44;;;;;;;13.93;3.65;;;11.40;70.40;;;;;;5049495;28;20052;-52
2023/01/13 09:38:10;;;;;;;10.32;3.05;;;11.40;69.80;;;;;;5049787;28;20115;-49
2023/01/13 09:40:40;;;;;;;13.25;3.15;;;11.50;69.90;;;;;;5045997;28;20080;-50
2023/01/13 09:49:15;;;;;;;13.73;3.22;;;11.60;69.40;;;;;;5043349;28;20116;-49
2023/01/13 09:51:47;;;;;;;12.75;3.13;;;11.70;69.30;;;;;;5042388;28;20117;-49
2023/01/13 09:54:39;;;;;;;10.93;2.97;;;11.70;69.20;;;;;;5025957;28;20045;-53
2023/01/13 09:57:14;;;;;;;10.23;2.45;;;11.80;69.00;;;;;;5035188;28;20059;-49
2023/01/13 09:59:41;;;;;;;14.90;3.55;;;11.80;68.70;;;;;;5045507;28;20045;-52
2023/01/13 10:02:31;;;;;;;8.88;2.58;;;11.80;69.00;;;;;;5045234;28;20444;-49
2023/01/13 10:05:15;;;;;;;10.52;3.05;;;11.90;68.30;;;;;;5037438;28;20063;-49
2023/01/13 10:07:51;;;;;;;12.10;3.13;;;11.90;68.50;;;;;;5046154;28;20067;-53
2023/01/13 10:10:30;;;;;;;9.90;3.45;;;11.90;68.30;;;;;;5045900;28;20041;-53
2023/01/13 10:13:16;;;;;;;14.75;3.13;;;11.90;68.00;;;;;;5046412;28;20441;-49
2023/01/13 10:15:55;;;;;;;11.55;2.95;;;11.90;68.40;;;;;;5046692;28;20049;-52
2023/01/13 10:18:41;;;;;;;7.57;3.10;;;12.00;67.80;;;;;;5031338;28;20091;-48
2023/01/13 10:21:34;;;;;;;9.52;2.83;;;12.00;67.40;;;;;;5043387;28;20867;-50
2023/01/13 10:24:33;;;;;;;9.50;3.53;;;12.00;67.50;;;;;;5052398;28;20044;-53
2023/01/13 10:27:06;;;;;;;11.82;2.67;;;12.00;67.40;;;;;;5045436;28;20037;-49
2023/01/13 10:29:35;;;;;;;9.13;2.60;;;12.00;67.90;;;;;;5053808;28;20405;-50
2023/01/13 10:32:02;;;;;;;11.65;3.47;;;12.00;67.90;;;;;;5044256;28;20037;-49
2023/01/13 10:34:29;;;;;;;11.55;3.22;;;12.00;67.90;;;;;;5035136;28;20094;-50
2023/01/13 10:37:05;;;;;;;17.45;4.18;;;12.00;67.80;;;;;;5051451;28;20404;-50
2023/01/13 10:39:41;;;;;;;7.70;3.20;;;12.10;67.40;;;;;;5046800;28;20052;-49
2023/01/13 10:42:17;;;;;;;10.90;3.35;;;12.10;67.00;;;;;;5044944;28;20068;-53
2023/01/13 10:44:54;;;;;;;13.43;4.40;;;12.20;66.80;;;;;;5052754;28;20408;-49
2023/01/13 10:47:28;;;;;;;8.30;3.28;;;12.30;66.90;;;;;;5045766;28;20120;-52
2023/01/13 10:50:17;;;;;;;9.45;2.45;;;12.30;67.40;;;;;;5052503;28;20481;-49
2023/01/13 10:53:01;;;;;;;15.98;3.33;;;12.40;66.20;;;;;;5052125;28;20555;-53
2023/01/13 10:55:35;;;;;;;12.32;2.92;;;12.40;65.80;;;;;;5025802;28;20057;-50
2023/01/13 10:58:18;;;;;;;11.38;2.70;;;12.50;66.20;;;;;;5046468;28;20517;-50
2023/01/13 11:00:47;;;;;;;10.13;3.92;;;12.40;65.80;;;;;;5052584;28;20068;-52
2023/01/13 11:03:23;;;;;;;14.38;3.75;;;12.50;66.10;;;;;;5052511;28;20033;-54
2023/01/13 11:05:58;;;;;;;13.30;3.42;;;12.50;65.50;;;;;;5047822;28;20052;-51
2023/01/13 11:08:38;;;;;;;11.50;2.67;;;12.50;65.60;;;;;;5052291;28;20124;-50
2023/01/13 11:11:37;;;;;;;14.38;3.42;;;12.50;65.90;;;;;;5052516;28;20177;-49
2023/01/13 11:14:35;;;;;;;14.75;3.20;;;12.50;65.40;;;;;;5042569;28;20437;-52
2023/01/13 11:17:09;;;;;;;14.25;2.85;;;12.50;65.60;;;;;;5046183;28;20041;-53
2023/01/13 11:19:40;;;;;;;10.00;2.72;;;12.50;65.60;;;;;;5041150;28;20052;-50
2023/01/13 11:22:16;;;;;;;14.65;4.18;;;12.50;65.70;;;;;;5052040;28;20677;-53
2023/01/13 11:24:50;;;;;;;10.52;3.60;;;12.50;65.50;;;;;;5049249;28;20071;-49
2023/01/13 11:27:21;;;;;;;9.10;2.55;;;12.60;65.30;;;;;;5046511;28;20086;-50
2023/01/13 11:30:08;;;;;;;13.52;3.38;;;12.60;65.40;;;;;;5052536;28;20132;-50
2023/01/13 11:32:55;;;;;;;10.75;3.58;;;12.60;65.30;;;;;;5051340;28;20520;-51
2023/01/13 11:35:23;;;;;;;12.45;3.63;;;12.60;66.00;;;;;;5043928;28;20068;-49
2023/01/13 11:38:11;;;;;;;10.93;3.03;;;12.70;65.50;;;;;;5051869;28;20049;-50
2023/01/13 11:40:49;;;;;;;11.57;3.45;;;12.60;65.60;;;;;;5038744;28;20128;-51
2023/01/13 11:43:26;;;;;;;10.68;4.15;;;12.70;65.10;;;;;;5048561;28;20035;-54
2023/01/13 11:45:57;;;;;;;12.50;2.88;;;12.60;65.00;;;;;;5050170;28;20610;-51
2023/01/13 11:48:28;;;;;;;16.25;4.20;;;12.60;65.80;;;;;;5050186;28;20051;-48
2023/01/13 11:51:03;;;;;;;9.20;3.03;;;12.60;65.20;;;;;;5044908;28;20136;-50
2023/01/13 11:53:49;;;;;;;11.75;2.70;;;12.60;65.10;;;;;;5027771;28;20048;-48
2023/01/13 11:57:00;;;;;;;14.70;3.33;;;12.60;65.30;;;;;;5039917;28;20120;-47
2023/01/13 11:59:43;;;;;;;11.00;3.80;;;12.60;65.40;;;;;;5050110;28;20476;-49
2023/01/13 12:03:01;;;;;;;12.38;3.63;;;12.50;66.80;;;;;;5042547;28;20128;-48
2023/01/13 12:05:38;;;;;;;10.10;2.95;;;12.50;68.20;;;;;;4992399;28;20307;-48
2023/01/13 12:08:17;;;;;;;6.63;2.13;;;12.40;68.70;;;;;;5034261;28;20067;-49
2023/01/13 12:10:54;;;;;;;9.10;3.45;;;12.20;68.50;;;;;;5039138;28;20036;-49
2023/01/13 12:14:06;;;;;;;16.05;3.53;;;12.10;69.30;;;;;;5045558;28;20124;-48
2023/01/13 12:16:36;;;;;;;7.13;2.53;;;12.00;70.80;;;;;;5039744;28;20469;-48
2023/01/13 12:19:20;;;;;;;6.90;3.05;;;11.80;70.10;;;;;;5047162;28;20112;-52
2023/01/13 12:22:19;;;;;;;13.25;3.00;;;11.70;71.40;;;;;;5049123;28;20068;-49
2023/01/13 12:24:56;;;;;;;10.70;2.58;;;11.60;71.90;;;;;;5042920;28;20607;-49
2023/01/13 12:27:45;;;;;;;9.90;2.95;;;11.40;71.80;;;;;;5043937;28;20772;-49
2023/01/13 12:30:16;;;;;;;10.38;2.83;;;11.40;72.30;;;;;;5044323;28;20044;-48
2023/01/13 12:32:44;;;;;;;10.38;2.88;;;11.30;71.90;;;;;;5046053;28;20052;-53
2023/01/13 12:35:58;;;;;;;10.15;3.03;;;11.30;72.30;;;;;;5050255;28;20408;-53
2023/01/13 12:38:45;;;;;;;9.50;2.63;;;11.20;73.00;;;;;;5044169;28;20548;-53
2023/01/13 12:41:25;;;;;;;10.18;2.95;;;11.20;73.50;;;;;;5042935;28;20866;-50
2023/01/13 12:46:55;;;;;;;9.43;3.25;;;11.10;73.30;;;;;;5045443;28;20033;-51
2023/01/13 12:49:23;;;;;;;12.95;2.92;;;11.10;73.40;;;;;;5045366;28;20038;-50
2023/01/13 12:51:55;;;;;;;5.90;2.13;;;11.10;73.40;;;;;;5046650;28;20041;-50
2023/01/13 12:54:52;;;;;;;12.05;3.08;;;11.10;73.20;;;;;;5041787;28;20052;-51
2023/01/13 12:57:24;;;;;;;9.00;2.83;;;11.10;73.50;;;;;;5044273;28;20382;-54
2023/01/13 13:00:11;;;;;;;11.43;2.75;;;11.10;73.00;;;;;;5048583;28;20053;-50
2023/01/13 13:02:40;;;;;;;6.40;2.63;;;11.00;73.20;;;;;;5048312;28;20049;-52
2023/01/13 13:05:13;;;;;;;6.78;2.22;;;11.10;73.10;;;;;;5044794;28;20116;-53
2023/01/13 13:07:44;;;;;;;10.35;3.15;;;11.10;72.80;;;;;;5042489;28;20045;-52
2023/01/13 13:10:37;;;;;;;6.10;3.10;;;11.10;72.90;;;;;;5045914;28;20132;-54
2023/01/13 13:13:21;;;;;;;7.80;2.45;;;11.10;72.70;;;;;;5045274;28;20052;-48
2023/01/13 13:15:50;;;;;;;5.10;2.03;;;11.20;72.90;;;;;;5046528;28;20048;-50
2023/01/13 13:18:16;;;;;;;9.20;3.33;;;11.20;72.50;;;;;;5045751;28;20139;-51
2023/01/13 13:21:03;;;;;;;13.07;3.97;;;11.30;72.40;;;;;;5047089;28;20541;-51
2023/01/13 13:23:38;;;;;;;9.70;2.75;;;11.30;71.80;;;;;;5050163;28;20033;-51
2023/01/13 13:26:18;;;;;;;9.73;2.60;;;11.40;71.70;;;;;;5048656;28;20067;-50
2023/01/13 13:28:54;;;;;;;7.45;2.45;;;11.40;71.50;;;;;;5045214;28;20045;-53
2023/01/13 13:31:24;;;;;;;8.90;2.75;;;11.50;71.10;;;;;;5048771;28;20041;-50
2023/01/13 13:34:32;;;;;;;5.95;2.33;;;11.60;71.10;;;;;;5048563;28;20048;-54
2023/01/13 13:37:28;;;;;;;12.13;3.85;;;11.60;70.80;;;;;;5041533;28;20261;-55
2023/01/13 13:48:25;;;;;;;9.20;3.42;;;11.80;70.40;;;;;;5053327;23;20041;-50
2023/01/13 13:51:02;;;;;;;9.70;3.30;;;11.80;70.60;;;;;;5048244;28;20040;-47
2023/01/13 13:53:36;;;;;;;11.15;2.92;;;11.80;70.40;;;;;;5047923;28;20618;-46
2023/01/13 13:56:13;;;;;;;5.40;2.47;;;11.80;70.40;;;;;;5043780;28;20055;-50
2023/01/13 13:58:40;;;;;;;8.88;2.55;;;11.80;70.40;;;;;;5052438;28;20048;-48
2023/01/13 14:01:15;;;;;;;10.40;2.88;;;11.80;70.30;;;;;;5053237;28;20056;-49
2023/01/13 14:03:42;;;;;;;10.57;3.20;;;11.80;70.40;;;;;;5050936;28;20132;-50
2023/01/13 14:06:21;;;;;;;10.23;3.03;;;11.80;70.50;;;;;;5047064;28;20033;-47
2023/01/13 14:08:49;;;;;;;10.75;3.03;;;11.80;70.50;;;;;;5052253;28;20128;-47
2023/01/13 14:11:24;;;;;;;15.00;3.38;;;11.80;71.40;;;;;;5053715;28;20457;-45
2023/01/13 14:14:13;;;;;;;15.38;3.47;;;11.80;70.80;;;;;;5045992;28;20049;-46